KMCI/MCI METAR and TAF weather

Enter ICAO airport designator
Station Type Date Time Source
KMCI METAR 2020/01/18 23:53 UTC NOAA

KMCI 182353Z 31012G20KT 10SM FEW200 M02/M11 A3035 RMK AO2 SLP287 T10221111 10000 21028 51018 $


Station Type Date Time Source
KMCI Decoded METAR 2020/01/18 23:53 UTC NOAA

KANSAS CITY INTERNATIONAL AIRPORT, MO, United States (KMCI) 39-18N 94-44W 320M
Jan 18, 2020 - 06:53 PM EST / 2020.01.18 2353 UTC
Wind: from the NW (310 degrees) at 14 MPH (12 KT) gusting to 23 MPH (20 KT):0
Visibility: 10 mile(s):0
Sky conditions: mostly clear
Temperature: 28.0 F (-2.2 C)
Windchill: 17 F (-8 C):1
Dew Point: 12.0 F (-11.1 C)
Relative Humidity: 50%
Pressure (altimeter): 30.35 in. Hg (1027 hPa)
Pressure tendency: 0.05 inches (1.8 hPa) higher than three hours ago
ob: KMCI 182353Z 31012G20KT 10SM FEW200 M02/M11 A3035 RMK AO2 SLP287 T10221111 10000 21028 51018
cycle: 0

Station Type Date Time Source
KMCI TAF 2020/01/18 18:22 UTC NOAA

TAF KMCI 181720Z 1818/1918 31020G30KT P6SM SCT250
FM190000 32011KT P6SM SKC

Example: see airport list